Time;durP1;ratioP1;P1;durP2;ratioP2;P2;SDS_P1;SDS_P2;PMS_P1;PMS_P2;Temp;Humidity;BMP_temperature;BMP_pressure;BME280_temperature;BME280_humidity;BME280_pressure;Samples;Min_cycle;Max_cycle;Signal;HPM_P1;HPM_P2
2023/10/21 00:02:12;;;;;;;73.57;30.30;;;;;;;;;;5040476;28;20099;-73
2023/10/21 00:04:38;;;;;;;64.88;28.15;;;;;;;;;;5041894;28;20468;-73
2023/10/21 00:07:04;;;;;;;93.25;31.73;;;;;;;;;;5019921;28;20037;-73
2023/10/21 00:09:30;;;;;;;76.55;27.80;;;;;;;;;;5045728;28;20061;-73
2023/10/21 00:11:56;;;;;;;79.47;28.05;;;;;;;;;;5038583;28;20026;-74
2023/10/21 00:14:22;;;;;;;80.05;29.60;;;;;;;;;;5031953;28;20034;-73
2023/10/21 00:16:49;;;;;;;76.80;28.48;;;;;;;;;;5042476;28;20526;-73
2023/10/21 00:19:17;;;;;;;72.13;26.77;;;;;;;;;;5045583;28;20075;-73
2023/10/21 00:21:43;;;;;;;74.80;27.55;;;;;;;;;;5038517;28;20033;-73
2023/10/21 00:24:09;;;;;;;74.65;27.02;;;;;;;;;;5051319;28;20116;-73
2023/10/21 00:26:47;;;;;;;88.57;27.70;;;;;;;;;;5040729;28;20040;-73
2023/10/21 00:29:13;;;;;;;58.30;25.17;;;;;;;;;;5046085;28;20029;-73
2023/10/21 00:31:39;;;;;;;54.40;22.98;;;;;;;;;;5035889;28;20386;-72
2023/10/21 00:34:05;;;;;;;73.40;27.17;;;;;;;;;;5031400;28;20357;-73
2023/10/21 00:36:31;;;;;;;78.95;26.88;;;;;;;;;;5036487;28;20044;-73
2023/10/21 00:38:57;;;;;;;57.95;24.02;;;;;;;;;;5047276;28;20128;-73
2023/10/21 00:41:24;;;;;;;73.65;24.23;;;;;;;;;;5026477;28;20041;-72
2023/10/21 00:43:50;;;;;;;65.70;24.52;;;;;;;;;;5028425;28;20037;-73
2023/10/21 00:46:18;;;;;;;65.45;24.45;;;;;;;;;;5048055;28;20036;-72
2023/10/21 00:48:45;;;;;;;62.90;23.98;;;;;;;;;;5037122;28;20040;-73
2023/10/21 00:51:11;;;;;;;68.13;23.77;;;;;;;;;;5044829;28;20029;-72
2023/10/21 00:53:37;;;;;;;74.22;23.80;;;;;;;;;;5046094;28;20040;-73
2023/10/21 00:56:05;;;;;;;59.10;21.92;;;;;;;;;;5048903;28;20230;-73
2023/10/21 00:58:32;;;;;;;56.35;22.10;;;;;;;;;;5038965;28;20036;-73
2023/10/21 01:00:58;;;;;;;67.88;23.33;;;;;;;;;;5047610;28;20077;-73
2023/10/21 01:03:26;;;;;;;73.57;23.45;;;;;;;;;;5040511;28;20747;-73
2023/10/21 01:05:52;;;;;;;71.72;22.55;;;;;;;;;;5046463;28;20036;-73
2023/10/21 01:08:19;;;;;;;72.53;22.75;;;;;;;;;;5032930;28;20029;-73
2023/10/21 01:10:45;;;;;;;65.80;21.55;;;;;;;;;;5049262;28;20052;-73
2023/10/21 01:13:11;;;;;;;60.42;23.10;;;;;;;;;;5033585;28;20460;-74
2023/10/21 01:15:37;;;;;;;68.07;21.80;;;;;;;;;;5046406;28;20094;-73
2023/10/21 01:18:04;;;;;;;55.42;22.10;;;;;;;;;;5046228;28;20045;-73
2023/10/21 01:20:30;;;;;;;65.93;21.58;;;;;;;;;;5033091;28;20041;-73
2023/10/21 01:22:59;;;;;;;76.28;23.13;;;;;;;;;;5041323;28;20041;-73
2023/10/21 01:25:25;;;;;;;62.97;20.77;;;;;;;;;;5030925;28;20483;-72
2023/10/21 01:27:53;;;;;;;66.03;23.27;;;;;;;;;;5039860;28;20036;-72
2023/10/21 01:30:20;;;;;;;85.55;23.20;;;;;;;;;;5034277;28;20037;-73
2023/10/21 01:32:47;;;;;;;73.60;21.27;;;;;;;;;;5038275;28;20122;-73
2023/10/21 01:35:13;;;;;;;43.33;20.80;;;;;;;;;;5050879;28;20040;-73
2023/10/21 01:37:39;;;;;;;72.85;22.40;;;;;;;;;;5030423;28;20068;-72
2023/10/21 01:40:06;;;;;;;54.30;20.27;;;;;;;;;;5033523;28;20105;-73
2023/10/21 01:42:32;;;;;;;51.25;18.90;;;;;;;;;;5044420;28;20101;-73
2023/10/21 01:45:00;;;;;;;44.60;18.75;;;;;;;;;;5026905;28;20039;-73
2023/10/21 01:47:26;;;;;;;57.58;20.27;;;;;;;;;;5047299;28;20207;-73
2023/10/21 01:49:53;;;;;;;51.20;18.92;;;;;;;;;;5046229;28;20505;-72
2023/10/21 01:52:19;;;;;;;52.70;19.23;;;;;;;;;;5046924;28;20490;-72
2023/10/21 01:54:45;;;;;;;52.45;19.95;;;;;;;;;;5040180;28;20758;-72
2023/10/21 01:57:11;;;;;;;54.22;18.65;;;;;;;;;;5054251;28;20040;-72
2023/10/21 01:59:41;;;;;;;46.10;17.52;;;;;;;;;;5043875;28;20041;-74
2023/10/21 02:02:07;;;;;;;39.65;17.00;;;;;;;;;;5039827;28;20475;-73
2023/10/21 02:04:33;;;;;;;39.92;16.58;;;;;;;;;;5053945;28;20083;-73
2023/10/21 02:06:59;;;;;;;44.95;17.73;;;;;;;;;;5042967;28;20048;-72
2023/10/21 02:09:25;;;;;;;40.45;15.82;;;;;;;;;;5040996;28;20107;-72
2023/10/21 02:11:55;;;;;;;48.72;16.30;;;;;;;;;;5051410;28;20068;-73
2023/10/21 02:14:22;;;;;;;37.50;15.65;;;;;;;;;;5033147;28;20029;-72
2023/10/21 02:16:49;;;;;;;39.38;15.80;;;;;;;;;;5041953;28;20037;-72
2023/10/21 02:19:15;;;;;;;33.13;15.73;;;;;;;;;;5033811;28;20493;-72
2023/10/21 02:21:41;;;;;;;37.33;16.25;;;;;;;;;;5043894;28;20041;-73
2023/10/21 02:24:07;;;;;;;42.10;16.73;;;;;;;;;;5045643;28;20044;-72
2023/10/21 02:26:33;;;;;;;33.88;15.30;;;;;;;;;;5046193;28;20115;-72
2023/10/21 02:28:59;;;;;;;39.60;15.02;;;;;;;;;;5035791;28;20068;-72
2023/10/21 02:31:25;;;;;;;35.60;15.18;;;;;;;;;;5039123;28;20475;-72
2023/10/21 02:33:52;;;;;;;36.88;14.90;;;;;;;;;;5032969;28;20105;-73
2023/10/21 02:36:18;;;;;;;41.35;16.55;;;;;;;;;;5052269;28;20406;-73
2023/10/21 02:38:45;;;;;;;30.30;14.55;;;;;;;;;;5032083;28;20034;-72
2023/10/21 02:41:11;;;;;;;35.45;15.13;;;;;;;;;;5044589;28;20382;-73
2023/10/21 02:43:37;;;;;;;34.40;14.13;;;;;;;;;;5042960;28;20044;-72
2023/10/21 02:46:11;;;;;;;34.55;14.43;;;;;;;;;;5041173;28;20036;-72
2023/10/21 02:48:37;;;;;;;33.88;13.52;;;;;;;;;;5046177;28;20045;-72
2023/10/21 02:51:13;;;;;;;40.90;14.82;;;;;;;;;;5049154;28;20099;-72
2023/10/21 02:53:39;;;;;;;31.30;13.45;;;;;;;;;;5038940;28;20037;-72
2023/10/21 02:56:06;;;;;;;44.05;14.77;;;;;;;;;;5034567;28;20056;-72
2023/10/21 02:58:32;;;;;;;36.40;14.45;;;;;;;;;;5037564;28;20044;-72
2023/10/21 03:00:59;;;;;;;29.73;12.90;;;;;;;;;;5046790;28;20128;-73
2023/10/21 03:03:26;;;;;;;27.88;13.20;;;;;;;;;;5048299;28;20037;-73
2023/10/21 03:05:52;;;;;;;28.88;13.38;;;;;;;;;;5037023;28;20025;-73
2023/10/21 03:08:18;;;;;;;29.42;13.00;;;;;;;;;;5033442;28;20033;-72
2023/10/21 03:10:44;;;;;;;25.48;13.00;;;;;;;;;;5036349;28;20064;-72
2023/10/21 03:13:10;;;;;;;29.63;13.90;;;;;;;;;;5045212;28;20075;-73
2023/10/21 03:15:36;;;;;;;23.02;11.32;;;;;;;;;;5024266;28;20068;-72
2023/10/21 03:18:03;;;;;;;36.00;14.00;;;;;;;;;;5033585;28;20053;-73
2023/10/21 03:20:32;;;;;;;35.63;13.32;;;;;;;;;;5033002;28;20041;-72
2023/10/21 03:22:58;;;;;;;34.58;12.82;;;;;;;;;;5038945;28;20052;-73
2023/10/21 03:25:24;;;;;;;32.78;12.75;;;;;;;;;;5036969;28;20033;-72
2023/10/21 03:27:50;;;;;;;36.20;14.20;;;;;;;;;;5039167;28;20470;-73
2023/10/21 03:30:16;;;;;;;28.70;13.15;;;;;;;;;;5038230;28;20036;-72
2023/10/21 03:32:42;;;;;;;28.30;12.02;;;;;;;;;;5047216;28;20471;-73
2023/10/21 03:35:09;;;;;;;36.10;15.68;;;;;;;;;;5039900;28;20037;-73
2023/10/21 03:37:35;;;;;;;45.58;15.00;;;;;;;;;;5033676;28;20067;-73
2023/10/21 03:40:05;;;;;;;33.05;14.02;;;;;;;;;;5048499;28;20360;-72
2023/10/21 03:42:31;;;;;;;42.08;16.85;;;;;;;;;;5049033;28;20029;-72
2023/10/21 03:44:57;;;;;;;49.63;17.40;;;;;;;;;;5048635;28;20394;-72
2023/10/21 03:47:23;;;;;;;30.88;14.73;;;;;;;;;;5048359;28;20068;-72
2023/10/21 03:49:49;;;;;;;42.70;16.25;;;;;;;;;;5052250;28;20040;-72
2023/10/21 03:52:15;;;;;;;50.67;17.52;;;;;;;;;;5048633;28;20025;-71
2023/10/21 03:54:42;;;;;;;54.10;17.90;;;;;;;;;;5030805;28;20037;-72
2023/10/21 03:57:08;;;;;;;45.10;17.15;;;;;;;;;;5038782;28;20065;-72
2023/10/21 03:59:33;;;;;;;48.22;19.00;;;;;;;;;;5030712;28;20379;-72
2023/10/21 04:01:59;;;;;;;55.10;19.85;;;;;;;;;;5021202;28;20080;-71
2023/10/21 04:04:25;;;;;;;46.45;19.45;;;;;;;;;;5035908;28;20079;-71
2023/10/21 04:06:51;;;;;;;59.58;20.33;;;;;;;;;;5042913;28;20033;-71
2023/10/21 04:09:17;;;;;;;52.67;20.42;;;;;;;;;;5050194;28;20116;-71
2023/10/21 04:11:43;;;;;;;56.15;21.95;;;;;;;;;;5024247;28;20112;-71
2023/10/21 04:14:10;;;;;;;56.65;21.58;;;;;;;;;;5051114;28;20113;-71
2023/10/21 04:16:42;;;;;;;73.13;23.75;;;;;;;;;;5045744;28;20033;-72
2023/10/21 04:19:08;;;;;;;77.80;24.20;;;;;;;;;;5047251;28;20029;-72
2023/10/21 04:21:34;;;;;;;61.42;22.60;;;;;;;;;;5048692;28;20435;-71
2023/10/21 04:24:00;;;;;;;64.43;24.98;;;;;;;;;;5029326;28;20052;-72
2023/10/21 04:26:27;;;;;;;93.75;28.40;;;;;;;;;;5042532;28;20104;-73
2023/10/21 04:28:53;;;;;;;69.25;25.90;;;;;;;;;;5048377;28;20041;-72
2023/10/21 04:31:19;;;;;;;74.47;26.25;;;;;;;;;;5040705;28;20478;-72
2023/10/21 04:33:45;;;;;;;74.13;26.67;;;;;;;;;;5040615;28;20401;-73
2023/10/21 04:36:11;;;;;;;85.82;27.85;;;;;;;;;;5045865;28;20071;-74
2023/10/21 04:38:37;;;;;;;87.45;28.05;;;;;;;;;;5032945;28;20048;-72
2023/10/21 04:41:07;;;;;;;94.97;27.40;;;;;;;;;;5038406;28;20030;-72
2023/10/21 04:43:33;;;;;;;93.32;29.25;;;;;;;;;;5019641;28;20360;-72
2023/10/21 04:45:59;;;;;;;72.30;26.63;;;;;;;;;;5038054;28;20040;-72
2023/10/21 04:48:25;;;;;;;90.10;29.17;;;;;;;;;;5032545;28;20037;-71
2023/10/21 04:50:51;;;;;;;101.60;31.48;;;;;;;;;;5046925;28;20089;-72
2023/10/21 04:53:17;;;;;;;81.28;29.02;;;;;;;;;;5031433;28;20034;-73
2023/10/21 04:55:43;;;;;;;84.35;30.25;;;;;;;;;;5038358;28;20065;-72
2023/10/21 04:58:09;;;;;;;95.45;31.30;;;;;;;;;;5048727;28;20048;-72
2023/10/21 05:00:35;;;;;;;74.93;30.55;;;;;;;;;;5050419;28;20426;-72
2023/10/21 05:03:01;;;;;;;109.13;33.20;;;;;;;;;;5016612;28;20091;-73
2023/10/21 05:05:27;;;;;;;90.60;31.58;;;;;;;;;;5031247;28;20076;-72
2023/10/21 05:07:53;;;;;;;88.90;32.70;;;;;;;;;;5029674;28;20041;-73
2023/10/21 05:10:20;;;;;;;87.90;31.52;;;;;;;;;;5032325;28;20422;-74
2023/10/21 05:12:46;;;;;;;85.63;31.40;;;;;;;;;;5036158;28;20033;-72
2023/10/21 05:15:12;;;;;;;124.03;34.28;;;;;;;;;;5049402;28;20033;-73
2023/10/21 05:17:38;;;;;;;102.50;33.17;;;;;;;;;;5023963;28;20041;-73
2023/10/21 05:20:05;;;;;;;79.28;30.80;;;;;;;;;;5018847;28;20030;-73
2023/10/21 05:22:31;;;;;;;66.57;27.02;;;;;;;;;;5046684;28;20029;-73
2023/10/21 05:24:57;;;;;;;100.75;32.22;;;;;;;;;;5044053;28;20076;-72
2023/10/21 05:27:23;;;;;;;86.90;31.50;;;;;;;;;;5047370;28;20060;-73
2023/10/21 05:29:49;;;;;;;89.65;31.63;;;;;;;;;;5057448;28;20489;-73
2023/10/21 05:32:15;;;;;;;118.22;33.75;;;;;;;;;;5055732;28;20041;-72
2023/10/21 05:34:41;;;;;;;110.25;33.67;;;;;;;;;;5048836;28;20386;-72
2023/10/21 05:37:07;;;;;;;62.40;27.92;;;;;;;;;;5054909;28;20037;-73
2023/10/21 05:39:33;;;;;;;96.40;31.27;;;;;;;;;;5046722;28;20040;-72
2023/10/21 05:41:59;;;;;;;84.93;29.67;;;;;;;;;;5044925;28;20029;-72
2023/10/21 05:44:25;;;;;;;78.47;30.05;;;;;;;;;;5038747;28;20460;-72
2023/10/21 05:46:51;;;;;;;98.43;33.78;;;;;;;;;;5055851;28;20044;-72
2023/10/21 05:49:18;;;;;;;89.50;31.35;;;;;;;;;;5046081;28;20037;-72
2023/10/21 05:51:44;;;;;;;83.78;30.17;;;;;;;;;;5049283;28;20038;-72
2023/10/21 05:54:10;;;;;;;86.32;30.58;;;;;;;;;;5042984;28;20053;-73
2023/10/21 05:56:36;;;;;;;79.88;29.88;;;;;;;;;;5045496;28;20052;-72
2023/10/21 05:59:04;;;;;;;78.90;29.33;;;;;;;;;;5046278;28;20056;-72
2023/10/21 06:01:30;;;;;;;85.38;31.30;;;;;;;;;;5056410;28;20040;-72
2023/10/21 06:03:56;;;;;;;94.93;31.48;;;;;;;;;;5038876;28;20099;-71
2023/10/21 06:06:22;;;;;;;90.63;30.15;;;;;;;;;;5051507;28;20484;-72
2023/10/21 06:08:48;;;;;;;79.38;30.67;;;;;;;;;;5043898;28;20033;-72
2023/10/21 06:11:14;;;;;;;86.63;30.90;;;;;;;;;;5028556;28;20037;-71
2023/10/21 06:13:40;;;;;;;89.32;29.52;;;;;;;;;;5050240;28;20474;-72
2023/10/21 06:16:08;;;;;;;75.20;28.65;;;;;;;;;;5038474;28;20029;-72
2023/10/21 06:18:34;;;;;;;76.38;28.25;;;;;;;;;;5038543;28;20119;-72
2023/10/21 06:21:01;;;;;;;86.07;29.52;;;;;;;;;;5027359;28;20041;-72
2023/10/21 06:23:27;;;;;;;73.43;29.02;;;;;;;;;;5053072;28;20080;-71
2023/10/21 06:25:54;;;;;;;67.47;27.35;;;;;;;;;;5045325;28;20601;-72
2023/10/21 06:28:20;;;;;;;65.78;28.17;;;;;;;;;;5046546;28;20052;-73
2023/10/21 06:30:46;;;;;;;84.20;31.08;;;;;;;;;;5041592;28;20029;-72
2023/10/21 06:33:13;;;;;;;99.43;30.73;;;;;;;;;;5045946;28;20037;-72
2023/10/21 06:35:39;;;;;;;74.07;28.08;;;;;;;;;;5043052;28;20221;-72
2023/10/21 06:38:08;;;;;;;80.57;30.33;;;;;;;;;;5033747;28;20037;-74
2023/10/21 06:40:34;;;;;;;75.72;28.38;;;;;;;;;;5051263;28;20044;-72
2023/10/21 06:43:00;;;;;;;77.63;27.70;;;;;;;;;;5048319;28;20078;-72
2023/10/21 06:45:26;;;;;;;95.97;32.67;;;;;;;;;;5036742;28;20414;-72
2023/10/21 06:47:52;;;;;;;66.57;28.27;;;;;;;;;;5041088;28;20040;-72
2023/10/21 06:50:19;;;;;;;71.88;26.98;;;;;;;;;;5047090;28;20037;-71
2023/10/21 06:52:45;;;;;;;66.88;27.75;;;;;;;;;;5046551;28;20036;-72
2023/10/21 06:55:11;;;;;;;71.13;28.77;;;;;;;;;;5037231;28;20116;-72
2023/10/21 06:57:37;;;;;;;81.82;29.02;;;;;;;;;;5048371;28;20037;-72
2023/10/21 07:00:03;;;;;;;64.53;28.38;;;;;;;;;;5034521;28;20552;-72
2023/10/21 07:02:29;;;;;;;84.18;29.55;;;;;;;;;;5038530;28;20155;-71
2023/10/21 07:04:56;;;;;;;64.60;26.80;;;;;;;;;;5040784;28;20091;-72
2023/10/21 07:07:22;;;;;;;63.20;26.00;;;;;;;;;;5039874;28;20041;-72
2023/10/21 07:09:48;;;;;;;75.03;28.95;;;;;;;;;;5033649;28;20037;-71
2023/10/21 07:12:15;;;;;;;69.15;26.90;;;;;;;;;;5036205;28;20037;-72
2023/10/21 07:14:41;;;;;;;58.42;27.35;;;;;;;;;;5052804;28;20043;-72
2023/10/21 07:17:07;;;;;;;58.70;26.70;;;;;;;;;;5026213;28;20116;-71
2023/10/21 07:19:33;;;;;;;69.85;28.23;;;;;;;;;;5036291;28;20037;-72
2023/10/21 07:21:59;;;;;;;65.03;27.77;;;;;;;;;;5036421;28;20029;-71
2023/10/21 07:24:25;;;;;;;62.60;25.27;;;;;;;;;;5024700;28;20087;-72
2023/10/21 07:26:51;;;;;;;67.68;28.65;;;;;;;;;;5052728;28;20423;-71
2023/10/21 07:29:17;;;;;;;57.83;25.58;;;;;;;;;;5044288;28;20033;-71
2023/10/21 07:31:43;;;;;;;60.97;26.83;;;;;;;;;;5043428;28;20071;-71
2023/10/21 07:34:11;;;;;;;61.13;27.20;;;;;;;;;;5038025;28;20043;-72
2023/10/21 07:36:37;;;;;;;56.03;25.77;;;;;;;;;;5046877;28;20029;-72
2023/10/21 07:39:06;;;;;;;55.35;26.42;;;;;;;;;;5047938;28;20337;-72
2023/10/21 07:41:33;;;;;;;66.63;27.35;;;;;;;;;;5035632;28;20040;-72
2023/10/21 07:44:00;;;;;;;59.22;26.08;;;;;;;;;;5029383;28;20044;-72
2023/10/21 07:46:26;;;;;;;66.05;27.67;;;;;;;;;;5039577;28;20437;-72
2023/10/21 07:48:52;;;;;;;60.10;27.23;;;;;;;;;;5033024;28;20143;-72
2023/10/21 07:51:18;;;;;;;63.25;27.33;;;;;;;;;;5050680;28;20398;-72
2023/10/21 07:53:45;;;;;;;68.22;28.10;;;;;;;;;;5039085;28;20449;-72
2023/10/21 07:56:11;;;;;;;57.22;26.55;;;;;;;;;;5032159;28;20049;-71
2023/10/21 07:58:38;;;;;;;46.97;25.45;;;;;;;;;;5038688;28;20083;-72
2023/10/21 08:01:05;;;;;;;54.53;26.50;;;;;;;;;;5038643;28;20037;-71
2023/10/21 08:03:34;;;;;;;69.00;27.38;;;;;;;;;;5037986;28;20021;-72
2023/10/21 08:06:01;;;;;;;48.90;26.08;;;;;;;;;;5034733;28;20033;-71
2023/10/21 08:08:29;;;;;;;55.92;25.42;;;;;;;;;;5041940;28;20029;-72
2023/10/21 08:10:59;;;;;;;54.10;27.02;;;;;;;;;;5033284;28;20073;-72
2023/10/21 08:13:25;;;;;;;53.22;26.58;;;;;;;;;;5030704;28;20467;-72
2023/10/21 08:15:51;;;;;;;53.55;25.33;;;;;;;;;;5037735;28;20035;-72
2023/10/21 08:18:17;;;;;;;53.95;27.25;;;;;;;;;;5044843;28;20037;-73
2023/10/21 08:20:43;;;;;;;53.20;23.85;;;;;;;;;;5043092;28;20505;-72
2023/10/21 08:23:09;;;;;;;44.88;22.67;;;;;;;;;;5048095;28;20028;-72
2023/10/21 08:25:36;;;;;;;51.80;23.65;;;;;;;;;;5042074;28;20029;-72
2023/10/21 08:28:03;;;;;;;45.33;20.95;;;;;;;;;;5042359;28;20033;-73
2023/10/21 08:30:29;;;;;;;41.53;20.02;;;;;;;;;;5046505;28;20135;-72
2023/10/21 08:32:55;;;;;;;38.53;20.30;;;;;;;;;;5040114;28;20033;-72
2023/10/21 08:35:22;;;;;;;42.67;22.35;;;;;;;;;;5035625;28;20989;-73
2023/10/21 08:37:48;;;;;;;42.45;20.35;;;;;;;;;;5045402;28;20667;-73
2023/10/21 08:40:14;;;;;;;38.38;19.42;;;;;;;;;;5044860;28;20147;-74
2023/10/21 08:42:40;;;;;;;40.53;19.40;;;;;;;;;;5027760;28;20176;-78
2023/10/21 08:45:07;;;;;;;33.20;19.23;;;;;;;;;;5041613;28;20108;-75
2023/10/21 08:47:34;;;;;;;33.90;18.33;;;;;;;;;;5043577;28;20094;-75
2023/10/21 08:50:01;;;;;;;27.17;17.42;;;;;;;;;;5034385;28;20051;-75
2023/10/21 08:52:27;;;;;;;123.82;82.88;;;;;;;;;;5043738;28;20029;-78
2023/10/21 08:54:53;;;;;;;31.67;18.73;;;;;;;;;;5042906;28;20056;-77
2023/10/21 08:57:19;;;;;;;48.72;28.27;;;;;;;;;;5047577;28;20099;-82
2023/10/21 08:59:45;;;;;;;27.85;17.85;;;;;;;;;;5049998;28;20033;-76
2023/10/21 09:02:11;;;;;;;28.45;14.68;;;;;;;;;;5047453;28;20028;-78
2023/10/21 09:04:37;;;;;;;24.75;14.88;;;;;;;;;;5044310;28;20044;-78
2023/10/21 09:07:04;;;;;;;32.75;14.20;;;;;;;;;;5047539;28;20151;-79
2023/10/21 09:09:30;;;;;;;27.63;13.20;;;;;;;;;;5043990;28;20036;-79
2023/10/21 09:12:10;;;;;;;25.90;11.40;;;;;;;;;;5032721;28;20112;-79
2023/10/21 09:14:57;;;;;;;20.80;10.65;;;;;;;;;;5044538;28;20052;-79
2023/10/21 09:17:46;;;;;;;19.20;10.13;;;;;;;;;;5046283;28;20057;-78
2023/10/21 09:20:13;;;;;;;24.98;13.07;;;;;;;;;;5023778;28;20462;-79
2023/10/21 09:22:40;;;;;;;19.80;11.98;;;;;;;;;;5050729;28;20068;-85
2023/10/21 09:25:18;;;;;;;20.70;11.27;;;;;;;;;;5051018;28;20025;-83
2023/10/21 09:27:55;;;;;;;23.02;9.80;;;;;;;;;;5050609;28;20100;-85
2023/10/21 09:30:22;;;;;;;17.75;9.32;;;;;;;;;;5049201;28;20079;-80
2023/10/21 09:32:49;;;;;;;13.35;7.63;;;;;;;;;;5048529;28;20025;-76
2023/10/21 09:35:21;;;;;;;19.70;8.15;;;;;;;;;;5050920;28;20021;-77
2023/10/21 09:37:48;;;;;;;23.80;11.13;;;;;;;;;;5045877;28;20053;-77
2023/10/21 09:40:15;;;;;;;48.92;17.42;;;;;;;;;;5012817;28;20882;-78
2023/10/21 09:42:44;;;;;;;20.73;10.40;;;;;;;;;;5038790;28;20030;-75
2023/10/21 09:45:15;;;;;;;14.23;8.40;;;;;;;;;;5031575;28;20030;-76
2023/10/21 09:47:42;;;;;;;14.95;7.45;;;;;;;;;;5033960;28;20025;-86
2023/10/21 09:50:15;;;;;;;38.55;24.45;;;;;;;;;;5048632;28;20025;-78
2023/10/21 09:52:48;;;;;;;12.25;6.15;;;;;;;;;;5040402;28;20055;-79
2023/10/21 09:55:14;;;;;;;9.02;5.30;;;;;;;;;;5045744;28;20028;-79
2023/10/21 09:57:41;;;;;;;14.65;6.30;;;;;;;;;;5031028;28;20045;-77
2023/10/21 10:00:11;;;;;;;6.60;5.30;;;;;;;;;;5030505;28;20064;-78
2023/10/21 10:02:37;;;;;;;6.25;3.97;;;;;;;;;;5044309;28;20556;-77
2023/10/21 10:05:07;;;;;;;4.50;3.63;;;;;;;;;;5034842;28;20034;-78
2023/10/21 10:07:35;;;;;;;6.10;4.47;;;;;;;;;;5049952;28;20445;-76
2023/10/21 10:10:02;;;;;;;6.20;3.75;;;;;;;;;;5045511;28;20494;-78
2023/10/21 10:12:32;;;;;;;9.40;4.82;;;;;;;;;;5017122;28;20029;-77
2023/10/21 10:14:58;;;;;;;13.13;4.20;;;;;;;;;;5033994;28;20083;-77
2023/10/21 10:17:44;;;;;;;9.00;4.63;;;;;;;;;;5046281;28;20037;-78
2023/10/21 10:20:22;;;;;;;7.57;4.28;;;;;;;;;;5045000;28;20533;-78
2023/10/21 10:22:49;;;;;;;8.50;4.07;;;;;;;;;;5050616;28;20036;-78
2023/10/21 10:25:24;;;;;;;8.55;4.05;;;;;;;;;;5048491;28;20033;-78
2023/10/21 10:27:56;;;;;;;11.75;6.10;;;;;;;;;;5051337;28;20040;-77
2023/10/21 10:30:22;;;;;;;6.32;4.57;;;;;;;;;;5029263;28;20029;-77
2023/10/21 10:32:51;;;;;;;7.18;4.47;;;;;;;;;;5047900;28;20539;-78
2023/10/21 10:35:34;;;;;;;7.40;4.07;;;;;;;;;;5041277;28;20065;-78
2023/10/21 10:38:00;;;;;;;;;;;;;;;;;;5052226;28;20071;-81
2023/10/21 10:40:33;;;;;;;5.05;4.10;;;;;;;;;;5040935;28;19948;-75
2023/10/21 10:43:00;;;;;;;5.18;4.32;;;;;;;;;;5044281;28;20426;-78
2023/10/21 10:45:26;;;;;;;10.55;4.10;;;;;;;;;;5054022;28;20021;-78
2023/10/21 10:48:02;;;;;;;7.22;3.90;;;;;;;;;;5050940;28;20040;-79
2023/10/21 10:50:29;;;;;;;4.05;2.70;;;;;;;;;;5046641;28;20029;-78
2023/10/21 10:52:55;;;;;;;4.68;2.58;;;;;;;;;;5051431;28;20104;-78
2023/10/21 10:55:21;;;;;;;10.65;4.13;;;;;;;;;;5012049;28;20036;-77
2023/10/21 10:57:48;;;;;;;6.35;2.60;;;;;;;;;;5049699;28;20044;-78
2023/10/21 11:00:21;;;;;;;2.88;2.20;;;;;;;;;;5050398;28;20025;-77
2023/10/21 11:02:48;;;;;;;;;;;;;;;;;;5033000;28;20467;-78
2023/10/21 11:05:20;;;;;;;3.85;2.72;;;;;;;;;;5035074;28;20366;-76
2023/10/21 11:07:52;;;;;;;3.63;2.65;;;;;;;;;;5051450;28;20490;-77
2023/10/21 11:10:22;;;;;;;4.25;2.33;;;;;;;;;;5045162;28;20035;-76
2023/10/21 11:12:49;;;;;;;4.68;2.30;;;;;;;;;;5053025;28;20044;-76
2023/10/21 11:15:16;;;;;;;3.25;1.90;;;;;;;;;;5031077;28;20025;-77
2023/10/21 11:17:43;;;;;;;4.38;1.63;;;;;;;;;;5046746;28;20036;-77
2023/10/21 11:20:13;;;;;;;2.30;1.33;;;;;;;;;;5049598;28;20040;-76
2023/10/21 11:22:39;;;;;;;2.97;1.48;;;;;;;;;;5042844;28;20036;-77
2023/10/21 11:25:05;;;;;;;3.33;1.17;;;;;;;;;;5050160;28;20043;-77
2023/10/21 11:27:32;;;;;;;5.57;0.85;;;;;;;;;;5046240;28;20040;-78
2023/10/21 11:29:58;;;;;;;3.20;1.17;;;;;;;;;;5047469;28;20115;-78
2023/10/21 11:32:28;;;;;;;1.00;0.52;;;;;;;;;;5042785;28;20041;-78
2023/10/21 11:35:15;;;;;;;4.93;1.00;;;;;;;;;;5038474;28;20029;-81
2023/10/21 11:37:41;;;;;;;2.33;1.00;;;;;;;;;;5047141;28;20044;-79
2023/10/21 11:40:09;;;;;;;3.88;0.82;;;;;;;;;;5050430;28;20037;-79
2023/10/21 11:42:36;;;;;;;5.07;1.00;;;;;;;;;;5051485;28;20053;-79
2023/10/21 11:45:03;;;;;;;1.77;1.27;;;;;;;;;;5050867;28;20025;-80
2023/10/21 11:47:30;;;;;;;2.90;0.90;;;;;;;;;;5044920;28;20143;-80
2023/10/21 11:49:56;;;;;;;6.22;0.70;;;;;;;;;;5044287;28;20033;-80
2023/10/21 11:52:23;;;;;;;2.42;1.00;;;;;;;;;;5046905;28;20467;-79
2023/10/21 12:13:55;;;;;;;5.20;1.92;;;;;;;;;;5049609;28;20066;-77
2023/10/21 12:16:35;;;;;;;3.70;1.92;;;;;;;;;;5036890;28;20033;-73
2023/10/21 12:45:54;;;;;;;2.90;1.13;;;;;;;;;;5034910;28;20083;-75
2023/10/21 12:48:21;;;;;;;2.22;0.80;;;;;;;;;;5030754;28;20502;-73
2023/10/21 12:50:50;;;;;;;3.70;0.75;;;;;;;;;;5035871;28;20033;-73
2023/10/21 12:53:17;;;;;;;1.88;0.68;;;;;;;;;;5046093;28;20033;-73
2023/10/21 12:55:46;;;;;;;3.67;0.98;;;;;;;;;;5031194;28;20053;-73
2023/10/21 12:58:12;;;;;;;2.42;0.80;;;;;;;;;;5041542;28;20116;-73
2023/10/21 13:00:41;;;;;;;4.35;0.80;;;;;;;;;;5038011;28;20045;-70
2023/10/21 13:03:10;;;;;;;5.28;0.95;;;;;;;;;;5042311;28;20108;-71
2023/10/21 13:05:37;;;;;;;1.88;1.00;;;;;;;;;;5048726;28;20040;-71
2023/10/21 13:08:07;;;;;;;7.80;3.95;;;;;;;;;;5045181;28;20079;-75
2023/10/21 13:10:33;;;;;;;6.55;3.75;;;;;;;;;;5035722;28;20132;-72
2023/10/21 13:13:02;;;;;;;6.00;2.17;;;;;;;;;;5037620;28;20544;-72
2023/10/21 13:15:29;;;;;;;3.78;2.40;;;;;;;;;;5036633;28;20055;-75
2023/10/21 13:17:55;;;;;;;3.30;1.10;;;;;;;;;;5033984;28;20389;-73
2023/10/21 13:20:21;;;;;;;2.88;0.80;;;;;;;;;;5043757;28;20025;-74
2023/10/21 13:22:48;;;;;;;2.10;1.02;;;;;;;;;;5021970;28;20044;-73
2023/10/21 13:25:14;;;;;;;7.55;2.38;;;;;;;;;;5042691;28;20072;-73
2023/10/21 13:27:41;;;;;;;5.20;2.40;;;;;;;;;;5043582;28;20040;-72
2023/10/21 13:30:10;;;;;;;4.63;1.80;;;;;;;;;;5047215;28;20475;-74
2023/10/21 13:32:47;;;;;;;4.80;0.95;;;;;;;;;;5038207;28;20475;-71
2023/10/21 13:35:14;;;;;;;2.55;0.98;;;;;;;;;;5033730;28;20030;-71
2023/10/21 13:37:43;;;;;;;3.60;0.85;;;;;;;;;;5037269;28;20148;-71
2023/10/21 13:40:16;;;;;;;3.42;1.40;;;;;;;;;;5035209;28;20064;-73
2023/10/21 13:42:46;;;;;;;3.50;1.63;;;;;;;;;;5046626;28;20021;-75
2023/10/21 13:45:22;;;;;;;22.33;11.65;;;;;;;;;;5037171;28;20037;-75
2023/10/21 13:47:54;;;;;;;5.15;1.80;;;;;;;;;;5039832;28;20383;-75
2023/10/21 13:50:23;;;;;;;4.05;1.05;;;;;;;;;;5038276;28;20088;-73
2023/10/21 13:52:50;;;;;;;1.50;0.80;;;;;;;;;;5031282;28;20087;-74
2023/10/21 13:55:16;;;;;;;3.85;0.85;;;;;;;;;;5044095;28;20029;-73
2023/10/21 13:57:45;;;;;;;3.95;0.77;;;;;;;;;;5043022;28;20098;-74
2023/10/21 14:02:56;;;;;;;4.30;1.17;;;;;;;;;;5046278;28;20381;-74
2023/10/21 14:05:22;;;;;;;3.17;1.23;;;;;;;;;;5030346;28;20459;-73
2023/10/21 14:07:48;;;;;;;1.60;0.55;;;;;;;;;;5040980;28;20061;-74
2023/10/21 14:10:14;;;;;;;6.70;1.20;;;;;;;;;;5040637;28;20479;-74
2023/10/21 14:12:40;;;;;;;3.80;1.80;;;;;;;;;;5038387;28;20092;-74
2023/10/21 14:15:10;;;;;;;7.45;1.13;;;;;;;;;;5039981;28;20100;-75
2023/10/21 14:17:36;;;;;;;4.10;0.93;;;;;;;;;;5041926;28;20403;-75
2023/10/21 14:20:04;;;;;;;1.98;1.13;;;;;;;;;;5042424;28;20070;-76
2023/10/21 14:22:30;;;;;;;2.72;0.98;;;;;;;;;;5043524;28;20036;-75
2023/10/21 14:24:56;;;;;;;5.35;1.98;;;;;;;;;;5041645;28;20033;-74
2023/10/21 14:27:23;;;;;;;6.88;2.38;;;;;;;;;;5040468;28;20063;-74
2023/10/21 14:29:49;;;;;;;4.90;1.30;;;;;;;;;;5043888;28;20691;-74
2023/10/21 14:32:16;;;;;;;3.63;1.00;;;;;;;;;;5025312;28;20021;-76
2023/10/21 14:34:42;;;;;;;7.00;1.00;;;;;;;;;;5032914;28;20037;-75
2023/10/21 14:37:08;;;;;;;8.07;1.20;;;;;;;;;;5023557;28;20957;-74
2023/10/21 14:39:35;;;;;;;5.93;0.70;;;;;;;;;;5023300;28;20044;-75
2023/10/21 14:42:01;;;;;;;4.43;0.85;;;;;;;;;;5040932;28;20387;-75
2023/10/21 14:44:27;;;;;;;5.35;1.52;;;;;;;;;;5042145;28;20060;-74
2023/10/21 14:46:53;;;;;;;5.18;0.98;;;;;;;;;;5045367;28;20494;-75
2023/10/21 14:49:19;;;;;;;5.25;0.75;;;;;;;;;;5043705;28;20151;-75
2023/10/21 14:51:46;;;;;;;8.02;1.10;;;;;;;;;;5039288;28;20045;-74
2023/10/21 14:54:13;;;;;;;14.90;7.20;;;;;;;;;;5052076;28;20055;-75
2023/10/21 14:56:39;;;;;;;7.50;2.72;;;;;;;;;;5062213;28;20060;-76
2023/10/21 14:59:05;;;;;;;6.35;1.67;;;;;;;;;;5064624;28;20395;-77
2023/10/21 15:01:31;;;;;;;8.95;2.83;;;;;;;;;;5046354;28;20034;-74
2023/10/21 15:03:57;;;;;;;6.57;1.35;;;;;;;;;;5032777;28;20177;-75
2023/10/21 15:06:23;;;;;;;4.68;1.23;;;;;;;;;;5026651;28;20044;-74
2023/10/21 15:08:49;;;;;;;6.25;0.80;;;;;;;;;;5042640;28;20045;-74
2023/10/21 15:11:16;;;;;;;4.57;1.00;;;;;;;;;;5037849;28;20437;-74
2023/10/21 15:13:42;;;;;;;6.25;1.70;;;;;;;;;;5025116;28;20125;-74
2023/10/21 15:16:08;;;;;;;7.72;1.50;;;;;;;;;;5038604;28;20044;-74